CYYL

Details ICAO CYYL (YYL)
Name LYNN LAKE
Region Canada
Timezone America/Winnipeg (UTC-6.0)
Plans Departing 3
Arriving 4
Stats Elevation 1,170 ft / 357 m (AMSL)
Location 56.862446° -101.073052°
Runways 2
Magnetic Variation 5.914° E
Sunrise 2017-12-16 15:18:10 UTC / 2017-12-16 09:18:10 Local
Sunset 2017-12-16 22:04:42 UTC / 2017-12-16 16:04:42 Local
Advertisement - Login to hide

Runways

ID Width Length Bearing (true) Bearing (mag) Surface Threshold Offset Overrun Length
08 80 ft / 24 m 2,512 ft / 766 m 86.81° 80.90° Gravel 0 ft / 0 m 0 ft / 0 m
17 150 ft / 46 m 4,967 ft / 1,514 m 180.00° 174.09° Asphalt 0 ft / 0 m 0 ft / 0 m
26 80 ft / 24 m 2,512 ft / 766 m 266.82° 260.91° Gravel 0 ft / 0 m 0 ft / 0 m
35 150 ft / 46 m 4,967 ft / 1,514 m 0.00° 354.09° Asphalt 0 ft / 0 m 0 ft / 0 m

Map

Weather


0- 5 10 15 20 25 30 35+ Temperature / ° C

Clouds and Precipitation
Forecast for 2017-12-17 00:00 UTC. Updated 2 minutes ago

Ground ~20,000 ft ~40,000 ft Winds

METAR

CYYL 161900Z AUTO 20004KT 9SM OVC026 M19/M21 A2975 RMK SLP121

TAF

TAF CYYL 161838Z 1619/1707 21005KT P6SM SCT015 OVC050 TEMPO 1619/1620 2SM -SN OVC015 RMK FCST BASED ON AUTO OBS. NXT FCST BY 170100Z

Frequencies

Tower 122.30 MHz MF WINNIPEG RDO
Warning: Do not use this data for real-world aviation or navigation. No guarantee of current accuracy is given.